Time;durP1;ratioP1;P1;durP2;ratioP2;P2;SDS_P1;SDS_P2;PMS_P1;PMS_P2;Temp;Humidity;BMP_temperature;BMP_pressure;BME280_temperature;BME280_humidity;BME280_pressure;Samples;Min_cycle;Max_cycle;Signal;HPM_P1;HPM_P2
2023/03/14 00:01:46;;;;;;;8.38;1.30;;;;;;;;;;6122923;23;20017;-73
2023/03/14 00:04:11;;;;;;;8.75;1.13;;;;;;;;;;6122730;23;20002;-73
2023/03/14 00:06:36;;;;;;;8.27;1.55;;;;;;;;;;6123125;23;20002;-75
2023/03/14 00:09:02;;;;;;;6.45;1.30;;;;;;;;;;6122715;23;20339;-75
2023/03/14 00:11:29;;;;;;;6.47;1.30;;;;;;;;;;6124388;23;20338;-72
2023/03/14 00:13:54;;;;;;;6.60;1.10;;;;;;;;;;6124458;23;20002;-73
2023/03/14 00:16:23;;;;;;;6.68;1.20;;;;;;;;;;6124691;23;20016;-74
2023/03/14 00:18:48;;;;;;;7.40;1.30;;;;;;;;;;6124553;23;20393;-74
2023/03/14 00:21:14;;;;;;;7.05;1.33;;;;;;;;;;6124934;23;20473;-74
2023/03/14 00:23:41;;;;;;;8.32;1.30;;;;;;;;;;6124537;23;20445;-74
2023/03/14 00:26:09;;;;;;;8.50;1.35;;;;;;;;;;6125221;23;20073;-74
2023/03/14 00:28:35;;;;;;;4.57;1.15;;;;;;;;;;6124567;23;20005;-75
2023/03/14 00:31:06;;;;;;;6.90;1.15;;;;;;;;;;6124655;23;20681;-73
2023/03/14 00:33:31;;;;;;;6.03;1.23;;;;;;;;;;6124403;23;20010;-74
2023/03/14 00:36:02;;;;;;;8.98;1.38;;;;;;;;;;6074583;23;20371;-74
2023/03/14 00:38:28;;;;;;;9.55;1.25;;;;;;;;;;6124738;23;20017;-74
2023/03/14 00:40:53;;;;;;;5.22;1.20;;;;;;;;;;6124749;23;20006;-74
2023/03/14 00:43:23;;;;;;;7.78;1.20;;;;;;;;;;6124240;23;20010;-75
2023/03/14 00:45:50;;;;;;;9.45;1.42;;;;;;;;;;6124745;23;20006;-74
2023/03/14 00:48:15;;;;;;;6.03;1.08;;;;;;;;;;6098538;23;20500;-74
2023/03/14 00:50:41;;;;;;;7.00;1.52;;;;;;;;;;6124558;23;20617;-73
2023/03/14 00:53:06;;;;;;;9.07;1.50;;;;;;;;;;6124077;23;20013;-73
2023/03/14 00:55:35;;;;;;;9.38;1.50;;;;;;;;;;6124732;23;20009;-73
2023/03/14 00:58:01;;;;;;;6.80;1.15;;;;;;;;;;6124230;23;20080;-72
2023/03/14 01:00:26;;;;;;;8.60;1.52;;;;;;;;;;6124420;23;20049;-73
2023/03/14 01:02:51;;;;;;;8.77;1.02;;;;;;;;;;6124382;23;20036;-74
2023/03/14 01:05:17;;;;;;;5.30;0.95;;;;;;;;;;6124545;23;20098;-72
2023/03/14 01:07:42;;;;;;;6.88;1.23;;;;;;;;;;6098602;23;20006;-72
2023/03/14 01:10:09;;;;;;;5.30;0.98;;;;;;;;;;6123965;23;20474;-73
2023/03/14 01:12:35;;;;;;;6.15;1.02;;;;;;;;;;6124100;23;20040;-75
2023/03/14 01:15:00;;;;;;;5.57;1.10;;;;;;;;;;6124194;23;20002;-75
2023/03/14 01:17:25;;;;;;;6.63;1.20;;;;;;;;;;6124523;23;20053;-75
2023/03/14 01:19:51;;;;;;;7.85;1.30;;;;;;;;;;6124053;23;20006;-74
2023/03/14 01:22:16;;;;;;;6.03;1.10;;;;;;;;;;6123937;23;20010;-75
2023/03/14 01:24:42;;;;;;;4.63;1.02;;;;;;;;;;6123950;23;20030;-74
2023/03/14 01:27:07;;;;;;;7.78;1.10;;;;;;;;;;6124037;23;20013;-73
2023/03/14 01:29:32;;;;;;;7.82;1.40;;;;;;;;;;6123937;23;20169;-75
2023/03/14 01:31:58;;;;;;;6.82;1.17;;;;;;;;;;6124123;23;20006;-76
2023/03/14 01:34:23;;;;;;;9.55;1.40;;;;;;;;;;6124051;23;20006;-73
2023/03/14 01:36:49;;;;;;;8.00;1.15;;;;;;;;;;6124225;23;20009;-73
2023/03/14 01:39:14;;;;;;;9.68;1.35;;;;;;;;;;6124330;23;20002;-74
2023/03/14 01:41:40;;;;;;;8.63;1.30;;;;;;;;;;6123769;23;20014;-76
2023/03/14 01:44:10;;;;;;;9.00;1.52;;;;;;;;;;6123706;23;20002;-73
2023/03/14 01:46:38;;;;;;;11.82;1.50;;;;;;;;;;6124164;23;20002;-75
2023/03/14 01:49:10;;;;;;;9.73;1.30;;;;;;;;;;6123886;23;20010;-75
2023/03/14 01:51:40;;;;;;;10.05;1.40;;;;;;;;;;6124101;23;20064;-73
2023/03/14 01:54:27;;;;;;;8.85;1.60;;;;;;;;;;6097859;23;20056;-74
2023/03/14 01:57:02;;;;;;;12.48;1.52;;;;;;;;;;6123880;23;20033;-74
2023/03/14 01:59:29;;;;;;;8.52;1.20;;;;;;;;;;6123479;23;20037;-74
2023/03/14 02:01:55;;;;;;;9.55;1.58;;;;;;;;;;6123621;23;20471;-73
2023/03/14 02:04:21;;;;;;;12.00;1.67;;;;;;;;;;6123583;23;20044;-75
2023/03/14 02:06:56;;;;;;;11.68;1.58;;;;;;;;;;6123838;23;20010;-74
2023/03/14 02:09:22;;;;;;;12.75;1.63;;;;;;;;;;6123840;23;20395;-74
2023/03/14 02:11:49;;;;;;;13.32;2.28;;;;;;;;;;6123678;23;20009;-74
2023/03/14 02:14:24;;;;;;;11.27;1.70;;;;;;;;;;6123992;23;20081;-73
2023/03/14 02:16:50;;;;;;;10.75;1.55;;;;;;;;;;6123942;23;20016;-72
2023/03/14 02:19:22;;;;;;;13.95;1.88;;;;;;;;;;6123552;23;20073;-75
2023/03/14 02:22:26;;;;;;;13.18;1.65;;;;;;;;;;6123404;23;20013;-73
2023/03/14 02:25:08;;;;;;;13.63;1.73;;;;;;;;;;5977025;24;20540;-74
2023/03/14 02:27:34;;;;;;;12.18;1.98;;;;;;;;;;5977528;24;20513;-74
2023/03/14 02:30:04;;;;;;;15.15;2.30;;;;;;;;;;6062183;23;20010;-75
2023/03/14 02:32:32;;;;;;;20.20;2.43;;;;;;;;;;6123915;23;20041;-74
2023/03/14 02:35:01;;;;;;;11.23;1.63;;;;;;;;;;6097041;23;20010;-73
2023/03/14 02:37:36;;;;;;;16.83;2.00;;;;;;;;;;6097547;23;20002;-74
2023/03/14 02:40:04;;;;;;;17.88;2.55;;;;;;;;;;6123178;23;20002;-73
2023/03/14 02:42:29;;;;;;;11.25;1.98;;;;;;;;;;6123198;23;20021;-75
2023/03/14 02:45:20;;;;;;;11.70;2.03;;;;;;;;;;6123510;23;20081;-73
2023/03/14 02:47:53;;;;;;;13.82;2.30;;;;;;;;;;6123453;23;20025;-73
2023/03/14 02:50:22;;;;;;;16.77;2.00;;;;;;;;;;6123432;23;20088;-73
2023/03/14 02:52:47;;;;;;;10.65;2.20;;;;;;;;;;6123603;23;20005;-72
2023/03/14 02:55:13;;;;;;;10.98;1.85;;;;;;;;;;6123279;23;20100;-72
2023/03/14 02:57:38;;;;;;;8.05;1.58;;;;;;;;;;6123395;23;20013;-73
2023/03/14 03:00:05;;;;;;;11.10;1.80;;;;;;;;;;6122942;23;20014;-73
2023/03/14 03:02:30;;;;;;;10.20;1.75;;;;;;;;;;6123444;23;20016;-73
2023/03/14 03:04:56;;;;;;;14.07;1.80;;;;;;;;;;6123323;23;20002;-73
2023/03/14 03:07:21;;;;;;;14.20;1.60;;;;;;;;;;6123748;23;20002;-73
2023/03/14 03:09:47;;;;;;;10.65;1.63;;;;;;;;;;6123238;23;20029;-72
2023/03/14 03:12:13;;;;;;;10.98;1.75;;;;;;;;;;6122887;23;20009;-72
2023/03/14 03:14:38;;;;;;;9.75;1.80;;;;;;;;;;6123231;23;20037;-72
2023/03/14 03:17:04;;;;;;;12.27;1.63;;;;;;;;;;6123313;23;20473;-75
2023/03/14 03:19:30;;;;;;;8.77;1.58;;;;;;;;;;6123460;23;20052;-73
2023/03/14 03:21:56;;;;;;;11.80;1.80;;;;;;;;;;6123073;23;20338;-74
2023/03/14 03:24:21;;;;;;;13.85;1.80;;;;;;;;;;6123062;23;20001;-73
2023/03/14 03:26:47;;;;;;;11.15;1.90;;;;;;;;;;6122908;23;20419;-74
2023/03/14 03:29:12;;;;;;;12.95;1.92;;;;;;;;;;6123182;23;20006;-75
2023/03/14 03:31:39;;;;;;;12.32;1.88;;;;;;;;;;6122835;23;20453;-74
2023/03/14 03:34:04;;;;;;;14.93;1.85;;;;;;;;;;6122897;23;20493;-73
2023/03/14 03:36:30;;;;;;;17.50;1.80;;;;;;;;;;6123091;23;20006;-73
2023/03/14 03:38:55;;;;;;;18.42;2.35;;;;;;;;;;6123477;23;20005;-73
2023/03/14 03:41:20;;;;;;;14.70;2.20;;;;;;;;;;6122932;23;20056;-73
2023/03/14 03:43:46;;;;;;;16.80;2.17;;;;;;;;;;6122799;23;20055;-74
2023/03/14 03:46:11;;;;;;;12.15;2.15;;;;;;;;;;6122510;23;20006;-73
2023/03/14 03:48:37;;;;;;;12.98;2.15;;;;;;;;;;6123031;23;20122;-73
2023/03/14 03:51:03;;;;;;;10.25;1.92;;;;;;;;;;6122888;23;20026;-73
2023/03/14 03:53:29;;;;;;;14.32;2.28;;;;;;;;;;6122678;23;20332;-72
2023/03/14 03:55:54;;;;;;;13.52;2.00;;;;;;;;;;6122928;23;20081;-73
2023/03/14 03:58:20;;;;;;;9.55;1.63;;;;;;;;;;6122987;23;20020;-74
2023/03/14 04:00:45;;;;;;;10.65;1.52;;;;;;;;;;6122767;23;20017;-73
2023/03/14 04:03:11;;;;;;;14.27;1.77;;;;;;;;;;6122787;23;20324;-74
2023/03/14 04:05:36;;;;;;;11.48;1.80;;;;;;;;;;6122665;23;20010;-73
2023/03/14 04:08:02;;;;;;;10.18;2.00;;;;;;;;;;6123016;23;20034;-73
2023/03/14 04:10:28;;;;;;;12.93;1.95;;;;;;;;;;6122826;23;20009;-73
2023/03/14 04:12:53;;;;;;;13.82;2.53;;;;;;;;;;6122772;23;20362;-73
2023/03/14 04:15:19;;;;;;;14.73;2.45;;;;;;;;;;6123141;23;20033;-74
2023/03/14 04:17:44;;;;;;;12.68;2.00;;;;;;;;;;6123066;23;20060;-73
2023/03/14 04:20:10;;;;;;;13.63;2.38;;;;;;;;;;6123057;23;20037;-72
2023/03/14 04:22:37;;;;;;;12.52;1.70;;;;;;;;;;6122902;23;20009;-72
2023/03/14 04:25:03;;;;;;;14.43;1.92;;;;;;;;;;6122514;23;20006;-73
2023/03/14 04:27:28;;;;;;;15.23;1.85;;;;;;;;;;6122465;23;20221;-72
2023/03/14 04:29:54;;;;;;;12.50;1.95;;;;;;;;;;6123106;23;20061;-72
2023/03/14 04:32:19;;;;;;;11.25;2.10;;;;;;;;;;6122903;23;20002;-72
2023/03/14 04:34:45;;;;;;;12.40;1.75;;;;;;;;;;6122899;23;20006;-73
2023/03/14 04:37:10;;;;;;;11.30;2.30;;;;;;;;;;6122637;23;20009;-73
2023/03/14 04:39:36;;;;;;;15.50;2.28;;;;;;;;;;6123007;23;20025;-72
2023/03/14 04:42:01;;;;;;;12.50;1.85;;;;;;;;;;6122287;23;20010;-73
2023/03/14 04:44:26;;;;;;;9.48;1.60;;;;;;;;;;6122624;23;20002;-72
2023/03/14 04:46:52;;;;;;;14.43;1.95;;;;;;;;;;6122644;23;20002;-76
2023/03/14 04:49:17;;;;;;;12.45;2.05;;;;;;;;;;6096964;23;20010;-77
2023/03/14 04:51:42;;;;;;;14.20;1.85;;;;;;;;;;6122741;23;20574;-76
2023/03/14 04:54:08;;;;;;;9.90;1.80;;;;;;;;;;6122698;23;20010;-75
2023/03/14 04:56:34;;;;;;;13.32;2.22;;;;;;;;;;6123083;23;20010;-75
2023/03/14 04:58:59;;;;;;;9.60;1.80;;;;;;;;;;6124264;23;20010;-76
2023/03/14 05:01:25;;;;;;;13.25;2.15;;;;;;;;;;6124163;23;20014;-75
2023/03/14 05:03:50;;;;;;;11.27;1.90;;;;;;;;;;6124287;23;20442;-74
2023/03/14 05:06:16;;;;;;;17.27;2.35;;;;;;;;;;6124847;23;20093;-75
2023/03/14 05:08:41;;;;;;;13.65;1.88;;;;;;;;;;6124684;23;20002;-74
2023/03/14 05:11:06;;;;;;;12.30;2.22;;;;;;;;;;6124341;23;20062;-74
2023/03/14 05:13:32;;;;;;;14.65;2.30;;;;;;;;;;6124320;23;20404;-76
2023/03/14 05:16:09;;;;;;;14.27;2.53;;;;;;;;;;6124245;23;20006;-73
2023/03/14 05:18:34;;;;;;;15.75;2.53;;;;;;;;;;6124572;23;20092;-72
2023/03/14 05:21:00;;;;;;;16.10;2.90;;;;;;;;;;6124339;23;20471;-76
2023/03/14 05:23:26;;;;;;;15.75;2.30;;;;;;;;;;6124083;23;20073;-71
2023/03/14 05:25:51;;;;;;;22.20;2.70;;;;;;;;;;6124216;23;20009;-75
2023/03/14 05:28:17;;;;;;;18.73;2.80;;;;;;;;;;6123981;23;20570;-76
2023/03/14 05:30:42;;;;;;;18.38;3.00;;;;;;;;;;6124518;23;20399;-74
2023/03/14 05:33:07;;;;;;;17.48;2.63;;;;;;;;;;6123981;23;20474;-75
2023/03/14 05:35:33;;;;;;;22.77;3.15;;;;;;;;;;6124029;23;20081;-74
2023/03/14 05:37:59;;;;;;;18.48;2.70;;;;;;;;;;6097819;23;20439;-73
2023/03/14 05:40:24;;;;;;;16.00;2.55;;;;;;;;;;6124285;23;20328;-72
2023/03/14 05:42:49;;;;;;;17.75;2.67;;;;;;;;;;6123765;23;20009;-73
2023/03/14 05:45:15;;;;;;;18.10;2.67;;;;;;;;;;6124145;23;20001;-74
2023/03/14 05:47:40;;;;;;;11.73;1.80;;;;;;;;;;6123996;23;20006;-73
2023/03/14 05:50:06;;;;;;;13.32;2.65;;;;;;;;;;6124197;23;20020;-73
2023/03/14 05:52:32;;;;;;;17.40;2.70;;;;;;;;;;6123887;23;20449;-75
2023/03/14 05:54:57;;;;;;;16.83;2.17;;;;;;;;;;6123993;23;20006;-74
2023/03/14 05:57:22;;;;;;;11.55;2.03;;;;;;;;;;6123593;23;20013;-74
2023/03/14 05:59:48;;;;;;;16.27;2.08;;;;;;;;;;6123880;23;20045;-75
2023/03/14 06:02:13;;;;;;;12.45;2.33;;;;;;;;;;6124182;23;20017;-72
2023/03/14 06:04:39;;;;;;;17.00;2.17;;;;;;;;;;6124305;23;20012;-73
2023/03/14 06:07:04;;;;;;;16.98;2.25;;;;;;;;;;6123707;23;20088;-73
2023/03/14 06:09:30;;;;;;;14.02;2.42;;;;;;;;;;6123386;23;20009;-73
2023/03/14 06:11:55;;;;;;;14.68;2.33;;;;;;;;;;6123303;23;20002;-74
2023/03/14 06:14:20;;;;;;;15.48;2.60;;;;;;;;;;6123898;23;20002;-74
2023/03/14 06:16:47;;;;;;;17.35;2.72;;;;;;;;;;6123831;23;20085;-75
2023/03/14 06:19:13;;;;;;;17.15;3.60;;;;;;;;;;6124079;23;20702;-74
2023/03/14 06:21:38;;;;;;;14.32;2.25;;;;;;;;;;6123810;23;20016;-75
2023/03/14 06:24:04;;;;;;;16.48;2.22;;;;;;;;;;6123289;23;20002;-73
2023/03/14 06:26:29;;;;;;;14.98;2.33;;;;;;;;;;6123301;23;20073;-74
2023/03/14 06:28:55;;;;;;;13.32;2.40;;;;;;;;;;6123545;23;20010;-77
2023/03/14 06:31:20;;;;;;;17.05;2.35;;;;;;;;;;6123821;23;20312;-75
2023/03/14 06:33:45;;;;;;;17.60;2.47;;;;;;;;;;6123304;23;20002;-73
2023/03/14 06:36:11;;;;;;;19.98;2.47;;;;;;;;;;6123730;23;20005;-73
2023/03/14 06:38:36;;;;;;;19.02;2.67;;;;;;;;;;6123561;23;20013;-72
2023/03/14 06:41:06;;;;;;;14.65;2.78;;;;;;;;;;6123437;23;20009;-73
2023/03/14 06:43:32;;;;;;;14.37;2.30;;;;;;;;;;6123397;23;20010;-75
2023/03/14 06:45:58;;;;;;;18.92;2.78;;;;;;;;;;6123372;23;20021;-74
2023/03/14 06:48:23;;;;;;;18.67;2.67;;;;;;;;;;6123194;23;20006;-74
2023/03/14 06:50:49;;;;;;;18.83;2.72;;;;;;;;;;6123546;23;20457;-73
2023/03/14 06:53:14;;;;;;;17.73;2.67;;;;;;;;;;6123457;23;20102;-73
2023/03/14 06:55:39;;;;;;;29.88;3.13;;;;;;;;;;6123309;23;20316;-72
2023/03/14 06:58:07;;;;;;;19.58;2.63;;;;;;;;;;6122946;23;20037;-74
2023/03/14 07:00:33;;;;;;;21.15;3.17;;;;;;;;;;6122878;23;20021;-73
2023/03/14 07:02:58;;;;;;;20.35;2.65;;;;;;;;;;6122937;23;20010;-75
2023/03/14 07:05:24;;;;;;;25.98;3.20;;;;;;;;;;6123127;23;20351;-74
2023/03/14 07:07:49;;;;;;;24.92;3.38;;;;;;;;;;6123224;23;20001;-74
2023/03/14 07:10:15;;;;;;;27.77;3.75;;;;;;;;;;6123359;23;20419;-75
2023/03/14 07:12:40;;;;;;;27.38;4.03;;;;;;;;;;6122937;23;20053;-76
2023/03/14 07:15:06;;;;;;;26.40;3.50;;;;;;;;;;6122982;23;20009;-75
2023/03/14 07:17:31;;;;;;;27.17;3.70;;;;;;;;;;6122901;23;20002;-74
2023/03/14 07:19:57;;;;;;;23.23;3.22;;;;;;;;;;6123129;23;20156;-74
2023/03/14 07:22:22;;;;;;;30.88;3.58;;;;;;;;;;6123065;23;20038;-76
2023/03/14 07:24:47;;;;;;;25.98;3.45;;;;;;;;;;6122879;23;20006;-75
2023/03/14 07:27:13;;;;;;;30.70;3.70;;;;;;;;;;6123140;23;20081;-75
2023/03/14 07:29:38;;;;;;;27.90;3.45;;;;;;;;;;6123231;23;20010;-76
2023/03/14 07:32:04;;;;;;;28.55;4.03;;;;;;;;;;6123232;23;20002;-75
2023/03/14 07:34:29;;;;;;;28.00;4.00;;;;;;;;;;6096737;23;20054;-76
2023/03/14 07:36:54;;;;;;;29.80;4.03;;;;;;;;;;6123070;23;20002;-72
2023/03/14 07:39:20;;;;;;;28.42;3.83;;;;;;;;;;6121896;23;20009;-77
2023/03/14 07:41:45;;;;;;;20.58;3.50;;;;;;;;;;6096857;23;20009;-74
2023/03/14 07:44:10;;;;;;;31.00;4.15;;;;;;;;;;6121885;23;20006;-73
2023/03/14 07:46:36;;;;;;;27.63;3.80;;;;;;;;;;6097006;23;20089;-73
2023/03/14 07:49:01;;;;;;;29.58;4.20;;;;;;;;;;6123017;23;20062;-73
2023/03/14 07:51:27;;;;;;;26.05;3.70;;;;;;;;;;6125271;23;20005;-73
2023/03/14 07:53:52;;;;;;;30.17;3.85;;;;;;;;;;6122741;23;20009;-73
2023/03/14 07:56:17;;;;;;;32.03;4.93;;;;;;;;;;6122489;23;20006;-72
2023/03/14 07:58:43;;;;;;;26.80;3.75;;;;;;;;;;6122434;23;20610;-72
2023/03/14 08:01:08;;;;;;;29.05;4.15;;;;;;;;;;6121255;23;20029;-70
2023/03/14 08:03:34;;;;;;;30.65;3.92;;;;;;;;;;6094510;23;20394;-73
2023/03/14 08:05:59;;;;;;;29.80;3.80;;;;;;;;;;6122029;23;20062;-72
2023/03/14 08:08:24;;;;;;;31.42;4.20;;;;;;;;;;6131005;23;20006;-72
2023/03/14 08:10:50;;;;;;;26.65;3.85;;;;;;;;;;6131885;23;19998;-71
2023/03/14 08:13:15;;;;;;;29.80;3.92;;;;;;;;;;6123117;23;20030;-75
2023/03/14 08:15:41;;;;;;;37.78;4.35;;;;;;;;;;6120200;23;20021;-75
2023/03/14 08:18:06;;;;;;;27.23;4.50;;;;;;;;;;6121494;23;20029;-75
2023/03/14 08:20:32;;;;;;;26.13;3.55;;;;;;;;;;6121963;23;20026;-73
2023/03/14 08:23:01;;;;;;;27.73;4.38;;;;;;;;;;6120646;23;20006;-74
2023/03/14 08:25:28;;;;;;;28.10;4.25;;;;;;;;;;6121845;23;20006;-74
2023/03/14 08:27:54;;;;;;;27.45;4.22;;;;;;;;;;6122091;23;20032;-74
2023/03/14 08:30:21;;;;;;;29.17;4.25;;;;;;;;;;6095269;23;20596;-74
2023/03/14 08:32:47;;;;;;;29.88;4.13;;;;;;;;;;6121479;23;19998;-73
2023/03/14 08:35:13;;;;;;;26.17;3.75;;;;;;;;;;6123327;23;20009;-73
2023/03/14 08:37:38;;;;;;;31.38;4.25;;;;;;;;;;6124721;23;20002;-76
2023/03/14 08:40:09;;;;;;;27.17;4.10;;;;;;;;;;6124266;23;20069;-77
2023/03/14 08:42:36;;;;;;;30.75;4.35;;;;;;;;;;6124691;23;20088;-76
2023/03/14 08:45:01;;;;;;;24.77;4.03;;;;;;;;;;6124325;23;20016;-75
2023/03/14 08:47:27;;;;;;;25.58;4.20;;;;;;;;;;6124609;23;20030;-75
2023/03/14 08:49:52;;;;;;;29.85;3.95;;;;;;;;;;6124243;23;20010;-74
2023/03/14 08:52:18;;;;;;;31.17;4.15;;;;;;;;;;6124718;23;20037;-75
2023/03/14 08:54:44;;;;;;;32.53;4.20;;;;;;;;;;6124241;23;20235;-74
2023/03/14 08:57:09;;;;;;;24.73;3.78;;;;;;;;;;6124320;23;20014;-75
2023/03/14 08:59:35;;;;;;;24.70;3.70;;;;;;;;;;6124260;23;20014;-77
2023/03/14 09:02:03;;;;;;;26.15;3.83;;;;;;;;;;6124572;23;20013;-76
2023/03/14 09:04:32;;;;;;;25.95;4.05;;;;;;;;;;6124348;23;20002;-75
2023/03/14 09:06:58;;;;;;;23.08;4.20;;;;;;;;;;6098348;23;20029;-75
2023/03/14 09:09:24;;;;;;;29.85;3.80;;;;;;;;;;6098127;23;20013;-76
2023/03/14 09:11:50;;;;;;;24.80;3.67;;;;;;;;;;6124279;23;20028;-75
2023/03/14 09:14:16;;;;;;;24.90;3.92;;;;;;;;;;6124196;23;20346;-76
2023/03/14 09:16:41;;;;;;;29.30;3.08;;;;;;;;;;6124470;23;20006;-76
2023/03/14 09:19:06;;;;;;;22.75;3.42;;;;;;;;;;6124175;23;20009;-75
2023/03/14 09:21:32;;;;;;;23.40;3.17;;;;;;;;;;6124239;23;20010;-76
2023/03/14 09:23:57;;;;;;;17.27;2.75;;;;;;;;;;6124235;23;20010;-75
2023/03/14 09:26:23;;;;;;;16.70;2.13;;;;;;;;;;6097879;23;20009;-74
2023/03/14 09:28:48;;;;;;;15.65;2.25;;;;;;;;;;6124176;23;20002;-77
2023/03/14 09:31:14;;;;;;;13.00;1.88;;;;;;;;;;6124439;23;20010;-76
2023/03/14 09:33:40;;;;;;;8.02;1.80;;;;;;;;;;6124215;23;20020;-76
2023/03/14 09:36:07;;;;;;;10.50;1.85;;;;;;;;;;6123741;23;20061;-76
2023/03/14 09:38:33;;;;;;;13.35;1.95;;;;;;;;;;6124441;23;20013;-75
2023/03/14 09:41:00;;;;;;;7.43;1.60;;;;;;;;;;6123780;23;20076;-75
2023/03/14 09:43:33;;;;;;;11.70;1.75;;;;;;;;;;6123298;23;20029;-75
2023/03/14 09:46:01;;;;;;;12.32;2.05;;;;;;;;;;6123584;23;20009;-74
2023/03/14 09:48:30;;;;;;;9.85;1.73;;;;;;;;;;6124668;23;20331;-77
2023/03/14 09:50:59;;;;;;;11.98;2.45;;;;;;;;;;6123914;23;20006;-75
2023/03/14 09:53:31;;;;;;;11.40;1.80;;;;;;;;;;6124377;23;20029;-77
2023/03/14 09:55:58;;;;;;;11.68;2.00;;;;;;;;;;6123637;23;20002;-77
2023/03/14 09:58:24;;;;;;;16.65;2.15;;;;;;;;;;6123548;23;20085;-73
2023/03/14 10:00:53;;;;;;;13.43;2.20;;;;;;;;;;6123531;23;20490;-73
2023/03/14 10:03:34;;;;;;;14.95;2.65;;;;;;;;;;6123854;23;20005;-76
2023/03/14 10:06:00;;;;;;;18.75;2.78;;;;;;;;;;6123477;23;20012;-73
2023/03/14 10:08:26;;;;;;;17.15;2.55;;;;;;;;;;6124120;23;20003;-75
2023/03/14 10:10:52;;;;;;;15.38;2.30;;;;;;;;;;6123879;23;20012;-76
2023/03/14 10:13:24;;;;;;;15.02;2.30;;;;;;;;;;6123713;23;19997;-76
2023/03/14 10:16:01;;;;;;;15.68;2.10;;;;;;;;;;6123303;23;20462;-77
2023/03/14 10:18:29;;;;;;;11.45;1.90;;;;;;;;;;6123749;23;20018;-74
2023/03/14 10:21:26;;;;;;;13.80;2.05;;;;;;;;;;6123087;23;20406;-75
2023/03/14 10:23:52;;;;;;;16.30;2.20;;;;;;;;;;6111795;23;20442;-76
2023/03/14 10:26:26;;;;;;;18.55;2.70;;;;;;;;;;6123571;23;20009;-76
2023/03/14 10:28:54;;;;;;;16.80;2.95;;;;;;;;;;6123902;23;20009;-76
2023/03/14 10:31:25;;;;;;;15.85;2.33;;;;;;;;;;6097312;23;20002;-76
2023/03/14 10:34:00;;;;;;;16.10;2.75;;;;;;;;;;6123736;23;20006;-75
2023/03/14 10:36:29;;;;;;;14.10;2.15;;;;;;;;;;6123241;23;20010;-75
2023/03/14 10:39:18;;;;;;;15.02;2.50;;;;;;;;;;6123709;23;20027;-74
2023/03/14 10:41:49;;;;;;;19.40;2.90;;;;;;;;;;6107288;23;20017;-76
2023/03/14 10:44:18;;;;;;;13.38;2.47;;;;;;;;;;6123840;23;20013;-76
2023/03/14 10:46:44;;;;;;;13.35;2.22;;;;;;;;;;6123283;23;20002;-75
2023/03/14 10:49:26;;;;;;;18.48;3.70;;;;;;;;;;6123624;23;20009;-76
2023/03/14 10:51:52;;;;;;;14.90;2.30;;;;;;;;;;6123121;23;20002;-76
2023/03/14 10:54:23;;;;;;;20.20;2.40;;;;;;;;;;6123419;23;20010;-75
2023/03/14 10:57:00;;;;;;;13.20;2.05;;;;;;;;;;6123161;23;20073;-77
2023/03/14 10:59:36;;;;;;;16.60;2.10;;;;;;;;;;6123612;23;20014;-76
2023/03/14 11:02:14;;;;;;;13.30;2.20;;;;;;;;;;6123417;23;20006;-75
2023/03/14 11:05:04;;;;;;;15.30;2.17;;;;;;;;;;6123654;23;20100;-75
2023/03/14 11:07:32;;;;;;;9.35;1.50;;;;;;;;;;6123780;23;20002;-75
2023/03/14 11:10:28;;;;;;;9.43;1.40;;;;;;;;;;6123152;23;20002;-75
2023/03/14 11:13:25;;;;;;;6.68;1.50;;;;;;;;;;6123209;23;20006;-75
2023/03/14 11:16:05;;;;;;;9.90;1.80;;;;;;;;;;6123116;23;20017;-73
2023/03/14 11:18:46;;;;;;;10.23;1.60;;;;;;;;;;6123450;23;20012;-75
2023/03/14 11:21:18;;;;;;;6.93;0.98;;;;;;;;;;6123117;23;20096;-77
2023/03/14 11:24:12;;;;;;;7.78;1.40;;;;;;;;;;6123415;23;20335;-75
2023/03/14 11:26:37;;;;;;;7.43;1.33;;;;;;;;;;6122538;23;20582;-77
2023/03/14 11:29:22;;;;;;;10.20;1.50;;;;;;;;;;6123128;23;20068;-76
2023/03/14 11:31:48;;;;;;;8.57;1.48;;;;;;;;;;6122855;23;20006;-73
2023/03/14 11:34:33;;;;;;;8.35;1.30;;;;;;;;;;6097652;23;20465;-76
2023/03/14 11:37:11;;;;;;;13.20;1.67;;;;;;;;;;6122937;23;20089;-76
2023/03/14 11:39:44;;;;;;;11.35;1.65;;;;;;;;;;6123413;23;20009;-72
2023/03/14 11:42:17;;;;;;;7.25;1.20;;;;;;;;;;6122860;23;20013;-76
2023/03/14 11:44:47;;;;;;;8.00;1.10;;;;;;;;;;6123183;23;20033;-75
2023/03/14 11:47:19;;;;;;;7.90;1.40;;;;;;;;;;6122599;23;20009;-75
2023/03/14 11:49:50;;;;;;;5.95;1.33;;;;;;;;;;6123200;23;20241;-77
2023/03/14 11:52:32;;;;;;;7.97;1.23;;;;;;;;;;6122839;23;20449;-75
2023/03/14 11:55:16;;;;;;;4.45;1.08;;;;;;;;;;6123523;23;20002;-74
2023/03/14 11:57:41;;;;;;;5.15;1.10;;;;;;;;;;6122652;23;20065;-74
2023/03/14 12:00:21;;;;;;;8.38;1.13;;;;;;;;;;6122857;23;20371;-75
2023/03/14 12:03:04;;;;;;;5.85;1.10;;;;;;;;;;6122770;23;20010;-77
2023/03/14 12:05:54;;;;;;;6.57;1.45;;;;;;;;;;6122784;23;20005;-76
2023/03/14 12:08:38;;;;;;;4.65;0.90;;;;;;;;;;6123316;23;20018;-73
2023/03/14 12:11:18;;;;;;;5.18;0.73;;;;;;;;;;6123080;23;20017;-76
2023/03/14 12:13:51;;;;;;;8.70;1.20;;;;;;;;;;6096938;23;20453;-75
2023/03/14 12:16:26;;;;;;;3.75;0.80;;;;;;;;;;6122591;23;20007;-76
2023/03/14 12:18:53;;;;;;;5.97;1.00;;;;;;;;;;6122999;23;20327;-76
2023/03/14 12:21:19;;;;;;;4.65;1.00;;;;;;;;;;6122400;23;20010;-76
2023/03/14 12:23:49;;;;;;;7.63;1.25;;;;;;;;;;6122696;23;20010;-73
2023/03/14 12:26:24;;;;;;;7.85;1.17;;;;;;;;;;6122638;23;20457;-72
2023/03/14 12:28:52;;;;;;;5.88;1.13;;;;;;;;;;6123203;23;20061;-74
2023/03/14 12:31:38;;;;;;;6.03;0.90;;;;;;;;;;6122939;23;20009;-76
2023/03/14 12:34:09;;;;;;;4.05;1.05;;;;;;;;;;6122980;23;20606;-76
2023/03/14 12:36:48;;;;;;;7.65;1.20;;;;;;;;;;6122443;23;20006;-73
2023/03/14 12:39:22;;;;;;;4.30;0.90;;;;;;;;;;6122597;23;20438;-73
2023/03/14 12:42:13;;;;;;;5.28;1.08;;;;;;;;;;6122164;23;20013;-74
2023/03/14 12:44:40;;;;;;;3.85;0.93;;;;;;;;;;6122847;23;20005;-76
2023/03/14 12:47:17;;;;;;;3.60;0.90;;;;;;;;;;6096385;23;20069;-76
2023/03/14 12:49:49;;;;;;;7.22;1.20;;;;;;;;;;6122833;23;20093;-73
2023/03/14 12:52:18;;;;;;;8.38;1.52;;;;;;;;;;6122288;23;20002;-74
2023/03/14 12:55:10;;;;;;;7.35;1.15;;;;;;;;;;6122712;23;20092;-76
2023/03/14 12:57:49;;;;;;;8.07;1.20;;;;;;;;;;6122094;23;20002;-77
2023/03/14 13:00:32;;;;;;;5.70;1.00;;;;;;;;;;6122391;23;20382;-76
2023/03/14 13:03:13;;;;;;;6.35;1.27;;;;;;;;;;6122462;23;20077;-75
2023/03/14 13:05:53;;;;;;;10.52;1.55;;;;;;;;;;6122872;23;20033;-75
2023/03/14 13:08:43;;;;;;;5.82;1.13;;;;;;;;;;6122380;23;20009;-73
2023/03/14 13:11:21;;;;;;;9.63;1.50;;;;;;;;;;6122826;23;20048;-75
2023/03/14 13:13:56;;;;;;;7.75;1.17;;;;;;;;;;6122417;23;20017;-75
2023/03/14 13:16:22;;;;;;;9.45;2.05;;;;;;;;;;6122580;23;20023;-76
2023/03/14 13:18:51;;;;;;;6.70;1.50;;;;;;;;;;6123887;23;20006;-76
2023/03/14 13:21:22;;;;;;;6.20;1.20;;;;;;;;;;6124447;23;20033;-74
2023/03/14 13:24:02;;;;;;;6.78;1.55;;;;;;;;;;6124359;23;20086;-76
2023/03/14 13:26:39;;;;;;;6.40;1.40;;;;;;;;;;6124120;23;20006;-77
2023/03/14 13:29:20;;;;;;;10.18;1.30;;;;;;;;;;6124294;23;20010;-76
2023/03/14 13:31:47;;;;;;;6.38;1.08;;;;;;;;;;6123907;23;20009;-76
2023/03/14 13:34:12;;;;;;;9.80;1.58;;;;;;;;;;6124341;23;20006;-76
2023/03/14 13:36:38;;;;;;;8.25;1.10;;;;;;;;;;6124277;23;20454;-76
2023/03/14 13:39:12;;;;;;;5.20;1.20;;;;;;;;;;6124139;23;20002;-76
2023/03/14 13:41:38;;;;;;;7.15;1.60;;;;;;;;;;6124109;23;20005;-77
2023/03/14 13:44:08;;;;;;;7.97;1.65;;;;;;;;;;6124027;23;20037;-76
2023/03/14 13:46:36;;;;;;;9.27;1.80;;;;;;;;;;6124177;23;20064;-76
2023/03/14 13:49:09;;;;;;;8.20;1.58;;;;;;;;;;6123702;23;20006;-76
2023/03/14 13:51:39;;;;;;;9.07;1.38;;;;;;;;;;6123933;23;20061;-76
2023/03/14 13:54:14;;;;;;;6.60;1.23;;;;;;;;;;6123974;23;20006;-76
2023/03/14 13:56:39;;;;;;;5.35;0.80;;;;;;;;;;6124109;23;20009;-76
2023/03/14 13:59:04;;;;;;;2.92;0.70;;;;;;;;;;6123664;23;20010;-77
2023/03/14 14:01:37;;;;;;;3.47;0.82;;;;;;;;;;6123997;23;20077;-75
2023/03/14 14:04:07;;;;;;;3.72;1.20;;;;;;;;;;6123667;23;20002;-75
2023/03/14 14:06:36;;;;;;;3.33;0.90;;;;;;;;;;6123994;23;20013;-74
2023/03/14 14:09:10;;;;;;;1.73;0.47;;;;;;;;;;6123407;23;20011;-75
2023/03/14 14:11:43;;;;;;;1.20;0.50;;;;;;;;;;6123942;23;20006;-74
2023/03/14 14:14:15;;;;;;;3.53;0.60;;;;;;;;;;6123707;23;20006;-76
2023/03/14 14:16:42;;;;;;;3.00;0.57;;;;;;;;;;6124053;23;20033;-75
2023/03/14 14:19:08;;;;;;;2.63;0.73;;;;;;;;;;6123576;23;20521;-76
2023/03/14 14:21:33;;;;;;;2.72;0.70;;;;;;;;;;6123812;23;20591;-76
2023/03/14 14:24:00;;;;;;;3.13;1.00;;;;;;;;;;6123521;23;20002;-76
2023/03/14 14:26:26;;;;;;;3.17;1.15;;;;;;;;;;6123571;23;20029;-76
2023/03/14 14:29:01;;;;;;;5.78;1.13;;;;;;;;;;6123174;23;20002;-76
2023/03/14 14:31:26;;;;;;;5.40;0.93;;;;;;;;;;6124143;23;20002;-76
2023/03/14 14:33:58;;;;;;;2.10;0.70;;;;;;;;;;6123357;23;20082;-73
2023/03/14 14:36:37;;;;;;;3.33;0.60;;;;;;;;;;6123543;23;20341;-74
2023/03/14 14:39:16;;;;;;;2.22;0.60;;;;;;;;;;6123121;23;20513;-76
2023/03/14 14:41:43;;;;;;;6.30;0.70;;;;;;;;;;6123330;23;20045;-74
2023/03/14 14:44:13;;;;;;;4.25;0.90;;;;;;;;;;6123208;23;20316;-75
2023/03/14 14:46:39;;;;;;;3.08;0.65;;;;;;;;;;6123644;23;20065;-75